Time;durP1;ratioP1;P1;durP2;ratioP2;P2;SDS_P1;SDS_P2;PMS_P1;PMS_P2;Temp;Humidity;BMP_temperature;BMP_pressure;BME280_temperature;BME280_humidity;BME280_pressure;Samples;Min_cycle;Max_cycle;Signal;HPM_P1;HPM_P2
2022/06/22 00:01:06;;;;;;;1999.90;999.90;;;;;;;22.20;62.95;95049.81;5028511;28;20044;-70
2022/06/22 00:03:33;;;;;;;1999.90;999.90;;;;;;;22.54;61.33;95023.22;5029556;28;20398;-69
2022/06/22 00:06:01;;;;;;;1999.90;999.90;;;;;;;22.98;61.95;95083.75;5029546;28;20382;-69
2022/06/22 00:08:32;;;;;;;1999.90;999.90;;;;;;;23.07;60.45;95068.66;5029257;28;20025;-69
2022/06/22 00:11:04;;;;;;;1999.90;999.90;;;;;;;23.27;59.83;95066.38;5029051;28;20119;-69
2022/06/22 00:13:32;;;;;;;1999.90;999.90;;;;;;;23.53;58.35;95067.16;5029524;28;20037;-70
2022/06/22 00:16:12;;;;;;;1999.90;999.90;;;;;;;23.31;58.13;95050.88;5029434;28;20351;-69
2022/06/22 00:18:45;;;;;;;1999.90;999.90;;;;;;;22.99;57.66;95003.97;5029261;28;20033;-70
2022/06/22 00:21:27;;;;;;;1999.90;999.90;;;;;;;23.00;55.21;95021.78;5029012;28;20030;-70
2022/06/22 00:23:56;;;;;;;1999.90;999.90;;;;;;;23.27;55.95;95036.50;5029740;28;20026;-70
2022/06/22 00:26:25;;;;;;;1999.90;999.90;;;;;;;23.47;56.45;95036.13;5029762;28;20021;-73
2022/06/22 00:28:58;;;;;;;1999.90;999.90;;;;;;;22.83;56.68;94940.00;5029812;28;20160;-69
2022/06/22 00:31:42;;;;;;;1999.90;999.90;;;;;;;23.61;56.61;95008.97;5029324;28;20022;-69
2022/06/22 00:34:10;;;;;;;1999.90;999.90;;;;;;;23.64;56.87;95008.19;5029264;28;20036;-70
2022/06/22 00:36:46;;;;;;;1999.90;999.90;;;;;;;23.31;57.29;94955.09;5028828;28;20079;-69
2022/06/22 00:39:38;;;;;;;1999.90;999.90;;;;;;;23.65;57.70;94988.06;5029070;28;20033;-69
2022/06/22 00:42:15;;;;;;;1999.90;999.90;;;;;;;23.68;57.87;94978.34;5028967;28;20379;-69
2022/06/22 00:44:59;;;;;;;1999.90;999.90;;;;;;;23.32;57.89;94922.13;5029045;28;20493;-69
2022/06/22 00:47:44;;;;;;;1999.90;999.90;;;;;;;23.77;57.68;94976.75;5029134;28;20025;-69
2022/06/22 00:50:09;;;;;;;1999.90;999.90;;;;;;;23.81;57.90;94979.47;5028814;28;20020;-70
2022/06/22 00:52:45;;;;;;;1999.90;999.90;;;;;;;23.85;57.67;94983.72;5028931;28;20109;-69
2022/06/22 00:55:23;;;;;;;1999.90;999.90;;;;;;;23.73;57.90;94958.91;5028853;28;20113;-69
2022/06/22 00:57:59;;;;;;;1999.90;999.90;;;;;;;23.65;58.64;94965.53;5028965;28;20540;-69
2022/06/22 01:00:29;;;;;;;1999.90;999.90;;;;;;;23.37;58.08;94929.13;5028549;28;20696;-69
2022/06/22 01:02:59;;;;;;;1999.90;999.90;;;;;;;23.77;58.27;94975.97;5029057;28;20025;-69
2022/06/22 01:05:35;;;;;;;1999.90;999.90;;;;;;;23.59;58.00;94946.13;5029081;28;20025;-69
2022/06/22 01:08:18;;;;;;;1999.90;999.90;;;;;;;23.80;58.09;94973.25;5028912;28;20061;-69
2022/06/22 01:10:48;;;;;;;1999.90;999.90;;;;;;;23.56;58.33;94955.84;5028526;28;20084;-69
2022/06/22 01:13:19;;;;;;;1999.90;999.90;;;;;;;23.01;59.33;94893.91;5029607;28;20013;-69
2022/06/22 01:16:02;;;;;;;1999.90;999.90;;;;;;;23.45;59.20;94949.66;5032349;28;20104;-70
2022/06/22 01:18:32;;;;;;;1999.90;999.90;;;;;;;23.50;59.52;94951.19;5032403;28;20033;-70
2022/06/22 01:21:16;;;;;;;1999.90;999.90;;;;;;;23.47;59.09;94943.84;5031974;28;20422;-69
2022/06/22 01:23:52;;;;;;;1999.90;999.90;;;;;;;23.38;60.01;94936.09;5032343;28;20044;-69
2022/06/22 01:26:28;;;;;;;1999.90;999.90;;;;;;;23.17;59.88;94926.03;5032054;28;20083;-69
2022/06/22 01:28:58;;;;;;;1999.90;999.90;;;;;;;22.33;59.87;94802.91;5032136;28;20025;-69
2022/06/22 01:31:24;;;;;;;1999.90;999.90;;;;;;;22.69;60.16;94855.16;5031837;28;20026;-70
2022/06/22 01:33:51;;;;;;;1999.90;999.90;;;;;;;22.70;60.94;94848.56;5032066;28;20044;-69
2022/06/22 01:36:29;;;;;;;1999.90;999.90;;;;;;;23.19;60.69;94917.53;5031932;28;20025;-70
2022/06/22 01:38:55;;;;;;;1999.90;999.90;;;;;;;22.96;60.74;94879.97;5031969;28;20040;-69
2022/06/22 01:41:39;;;;;;;1999.90;999.90;;;;;;;23.24;61.17;94925.28;5031714;28;20104;-69
2022/06/22 01:44:27;;;;;;;1999.90;999.90;;;;;;;23.23;61.44;94929.13;5031889;28;20103;-69
2022/06/22 01:47:24;;;;;;;1999.90;999.90;;;;;;;23.23;61.19;94927.19;5031934;28;20026;-70
2022/06/22 01:50:14;;;;;;;1999.90;999.90;;;;;;;22.79;61.28;94865.22;5031722;28;20030;-68
2022/06/22 01:53:17;;;;;;;1999.90;999.90;;;;;;;23.27;61.01;94927.97;5030926;28;20112;-68
2022/06/22 01:56:06;;;;;;;1999.90;999.90;;;;;;;23.20;61.66;94919.84;5030510;28;20093;-69
2022/06/22 01:59:03;;;;;;;1999.90;999.90;;;;;;;23.27;61.04;94900.81;5031545;28;20033;-68
2022/06/22 02:01:50;;;;;;;1999.90;999.90;;;;;;;23.25;61.18;94892.31;5031257;28;20036;-69
2022/06/22 02:04:20;;;;;;;1999.90;999.90;;;;;;;23.24;61.07;94892.72;5031469;28;20048;-68
2022/06/22 02:09:48;;;;;;;1999.90;999.90;;;;;;;23.09;61.74;94900.09;5031878;28;20127;-69
2022/06/22 02:12:20;;;;;;;1999.90;999.90;;;;;;;22.92;61.75;94874.53;5029906;28;20061;-68
2022/06/22 02:14:52;;;;;;;1999.90;999.90;;;;;;;22.71;61.62;94837.34;5031236;28;20115;-68
2022/06/22 02:17:22;;;;;;;1999.90;999.90;;;;;;;22.40;61.75;94800.94;5031428;28;20028;-68
2022/06/22 02:20:18;;;;;;;1999.90;999.90;;;;;;;22.94;62.07;94899.34;5031220;28;20022;-68
2022/06/22 02:22:45;;;;;;;1999.90;999.90;;;;;;;23.01;61.61;94903.97;5031107;28;20032;-68
2022/06/22 02:25:12;;;;;;;1999.90;999.90;;;;;;;22.72;61.58;94865.22;5029420;28;20060;-67
2022/06/22 02:27:38;;;;;;;1999.90;999.90;;;;;;;22.75;61.66;94873.34;5031015;28;20148;-67
2022/06/22 02:30:04;;;;;;;1999.90;999.90;;;;;;;22.70;61.27;94867.56;5030712;28;20496;-67
2022/06/22 02:32:37;;;;;;;1999.90;999.90;;;;;;;22.90;61.71;94900.50;5029571;28;20110;-68
2022/06/22 02:35:04;;;;;;;1999.90;999.90;;;;;;;22.93;61.69;94900.50;5030890;28;20580;-68
2022/06/22 02:37:34;;;;;;;1999.90;999.90;;;;;;;22.92;61.76;94903.59;5030830;28;20025;-69
2022/06/22 02:40:03;;;;;;;1999.90;999.90;;;;;;;22.77;61.85;94884.59;5030357;28;20029;-68
2022/06/22 02:45:15;;;;;;;1999.90;999.90;;;;;;;22.91;61.53;94888.50;5030260;28;20382;-68
2022/06/22 02:47:47;;;;;;;1999.90;999.90;;;;;;;22.86;61.35;94872.56;5029750;28;20040;-68
2022/06/22 02:50:34;;;;;;;1999.90;999.90;;;;;;;22.91;61.37;94880.34;5030268;28;20496;-68
2022/06/22 02:53:14;;;;;;;1999.90;999.90;;;;;;;22.46;61.45;94831.91;5030504;28;20022;-68
2022/06/22 02:55:39;;;;;;;1999.90;999.90;;;;;;;22.83;61.14;94887.69;5030361;28;20040;-68
2022/06/22 02:58:26;;;;;;;1999.90;999.90;;;;;;;22.29;60.91;94798.25;5030495;28;20029;-68
2022/06/22 03:00:52;;;;;;;1999.90;999.90;;;;;;;22.49;60.93;94819.53;5030165;28;20107;-68
2022/06/22 03:03:18;;;;;;;1999.90;999.90;;;;;;;21.94;60.91;94716.94;5030215;28;20017;-68
2022/06/22 03:05:46;;;;;;;1999.90;999.90;;;;;;;22.83;60.55;94855.94;5029160;28;20164;-70
2022/06/22 03:08:14;;;;;;;1999.90;999.90;;;;;;;22.85;60.40;94855.53;5030471;28;20034;-69
2022/06/22 03:10:45;;;;;;;1999.90;999.90;;;;;;;22.62;60.49;94820.69;5029873;28;20044;-70
2022/06/22 03:13:13;;;;;;;1999.90;999.90;;;;;;;22.49;60.42;94798.63;5030341;28;20242;-67
2022/06/22 03:15:39;;;;;;;1999.90;999.90;;;;;;;22.82;60.46;94851.66;5030045;28;20544;-67
2022/06/22 03:18:06;;;;;;;1999.90;999.90;;;;;;;22.52;60.38;94797.06;5030032;28;20065;-68
2022/06/22 03:20:39;;;;;;;1999.90;999.90;;;;;;;23.21;59.99;94877.97;5028259;28;20025;-68
2022/06/22 03:23:32;;;;;;;1999.90;999.90;;;;;;;23.20;59.76;94876.44;5030355;28;20033;-67
2022/06/22 03:26:06;;;;;;;1999.90;999.90;;;;;;;23.12;59.51;94864.03;5029915;28;20029;-69
2022/06/22 03:28:42;;;;;;;1999.90;999.90;;;;;;;23.15;59.59;94881.50;5029847;28;20032;-68
2022/06/22 03:31:35;;;;;;;1999.90;999.90;;;;;;;23.11;59.39;94867.91;5029613;28;20466;-68
2022/06/22 03:34:15;;;;;;;1999.90;999.90;;;;;;;22.28;59.50;94747.94;5029859;28;20475;-68
2022/06/22 03:36:50;;;;;;;1999.90;999.90;;;;;;;23.11;59.17;94869.84;5027808;28;20108;-68
2022/06/22 03:39:20;;;;;;;1999.90;999.90;;;;;;;23.19;59.55;94893.88;5029789;28;20033;-68
2022/06/22 03:41:56;;;;;;;1999.90;999.90;;;;;;;22.87;60.03;94833.44;5029425;28;20104;-69
2022/06/22 03:44:30;;;;;;;1999.90;999.90;;;;;;;22.89;59.63;94833.88;5028416;28;20028;-69
2022/06/22 03:47:05;;;;;;;1999.90;999.90;;;;;;;23.39;59.13;94882.56;5029723;28;20025;-68
2022/06/22 03:49:36;;;;;;;1999.90;999.90;;;;;;;23.64;58.61;94905.00;5029697;28;20018;-69
2022/06/22 03:52:26;;;;;;;1999.90;999.90;;;;;;;23.72;58.28;94909.25;5029404;28;20030;-69
2022/06/22 03:54:58;;;;;;;1999.90;999.90;;;;;;;23.37;58.16;94842.25;5029401;28;20028;-68
2022/06/22 03:57:27;;;;;;;1999.90;999.90;;;;;;;23.71;57.85;94877.84;5029698;28;20021;-68
2022/06/22 03:59:55;;;;;;;1999.90;999.90;;;;;;;22.79;57.64;94722.28;5029599;28;20462;-68
2022/06/22 04:02:23;;;;;;;1999.90;999.90;;;;;;;23.99;57.23;94866.06;5029708;28;20038;-70
2022/06/22 04:04:54;;;;;;;1999.90;999.90;;;;;;;23.54;57.09;94786.34;5029228;28;20083;-69
2022/06/22 04:07:21;;;;;;;1999.90;999.90;;;;;;;24.17;56.52;94882.28;5029874;28;20033;-69
2022/06/22 04:09:55;;;;;;;1999.90;999.90;;;;;;;23.94;56.08;94835.81;5030030;28;20033;-69
2022/06/22 04:12:32;;;;;;;1999.90;999.90;;;;;;;24.41;55.64;94901.56;5028744;28;20030;-70
2022/06/22 04:15:32;;;;;;;1999.90;999.90;;;;;;;24.40;55.63;94873.59;5029314;28;20100;-69
2022/06/22 04:18:20;;;;;;;1999.90;999.90;;;;;;;24.75;55.18;94904.44;5013023;28;20509;-68
2022/06/22 04:20:53;;;;;;;1999.90;999.90;;;;;;;24.81;55.00;94890.00;5028721;28;20036;-68
2022/06/22 04:23:21;;;;;;;1999.90;999.90;;;;;;;25.10;54.47;94898.72;5029092;28;20125;-68
2022/06/22 04:25:48;;;;;;;1999.90;999.90;;;;;;;25.13;53.99;94873.44;5029231;28;20026;-69
2022/06/22 04:28:15;;;;;;;1999.90;999.90;;;;;;;25.42;53.36;94878.56;5029403;28;20032;-69
2022/06/22 04:30:46;;;;;;;1999.90;999.90;;;;;;;25.69;52.47;94894.97;5028782;28;20026;-69
2022/06/22 04:33:17;;;;;;;1999.90;999.90;;;;;;;25.88;52.12;94899.84;5028051;28;20101;-69
2022/06/22 04:36:10;;;;;;;1999.90;999.90;;;;;;;26.07;51.44;94900.41;5029294;28;20105;-69
2022/06/22 04:38:49;;;;;;;1999.90;999.90;;;;;;;26.04;49.93;94877.44;5028936;28;20025;-69
2022/06/22 04:41:29;;;;;;;1999.90;999.90;;;;;;;26.49;49.61;94887.38;5028798;28;20021;-68
2022/06/22 04:43:59;;;;;;;1999.90;999.90;;;;;;;26.42;49.61;94850.84;5029213;28;20026;-69
2022/06/22 04:46:29;;;;;;;1999.90;999.90;;;;;;;26.76;48.74;94890.06;5029238;28;20065;-69
2022/06/22 04:49:00;;;;;;;1999.90;999.90;;;;;;;26.62;49.16;94855.63;5032755;28;20029;-69
2022/06/22 04:51:32;;;;;;;1999.90;999.90;;;;;;;26.87;48.51;94886.00;5031261;28;20029;-68
2022/06/22 04:54:21;;;;;;;1999.90;999.90;;;;;;;26.77;47.85;94843.28;5032832;28;20029;-69
2022/06/22 04:56:50;;;;;;;1999.90;999.90;;;;;;;27.31;47.08;94905.16;5031200;28;20028;-69
2022/06/22 04:59:17;;;;;;;1999.90;999.90;;;;;;;27.27;47.41;94931.75;5032510;28;20094;-69
2022/06/22 05:01:49;;;;;;;1999.90;999.90;;;;;;;26.30;48.66;94938.63;5032212;28;20026;-69
2022/06/22 05:04:24;;;;;;;1999.90;999.90;;;;;;;25.27;50.67;94894.28;5032463;28;20483;-70
2022/06/22 05:07:03;;;;;;;1999.90;999.90;;;;;;;25.63;51.01;94904.78;5031102;28;20026;-70
2022/06/22 05:09:36;;;;;;;1999.90;999.90;;;;;;;25.67;50.89;94921.88;5032423;28;20084;-69
2022/06/22 05:12:08;;;;;;;1999.90;999.90;;;;;;;24.85;51.68;94912.50;5030911;28;20072;-69
2022/06/22 05:14:34;;;;;;;1999.90;999.90;;;;;;;24.90;51.61;94890.31;5032148;28;20025;-69
2022/06/22 05:17:02;;;;;;;1999.90;999.90;;;;;;;25.53;51.21;94913.84;5032302;28;20032;-69
2022/06/22 05:19:41;;;;;;;1999.90;999.90;;;;;;;24.63;51.33;94802.34;5032022;28;20084;-69
2022/06/22 05:22:12;;;;;;;1999.90;999.90;;;;;;;25.24;52.43;94927.00;5031868;28;20030;-69
2022/06/22 05:24:44;;;;;;;1999.90;999.90;;;;;;;25.46;51.85;94920.16;5031850;28;20458;-69
2022/06/22 05:27:13;;;;;;;1999.90;999.90;;;;;;;25.63;51.71;94927.34;5032194;28;20025;-69
2022/06/22 05:29:46;;;;;;;1999.90;999.90;;;;;;;25.71;51.37;94876.28;5031965;28;20036;-69
2022/06/22 05:32:18;;;;;;;1999.90;999.90;;;;;;;26.26;51.02;94913.38;5032015;28;20064;-69
2022/06/22 05:34:48;;;;;;;1999.90;999.90;;;;;;;26.54;50.65;94928.59;5030977;28;20390;-69
2022/06/22 05:37:19;;;;;;;1999.90;999.90;;;;;;;26.64;49.42;94896.88;5032595;28;20022;-69
2022/06/22 05:39:45;;;;;;;1999.90;999.90;;;;;;;26.75;49.31;94867.47;5032477;28;20021;-70
2022/06/22 05:42:12;;;;;;;1999.90;999.90;;;;;;;26.93;49.18;94881.59;5031586;28;20108;-68
2022/06/22 05:44:38;;;;;;;1999.90;999.90;;;;;;;27.04;49.09;94883.38;5031554;28;20026;-68
2022/06/22 05:47:05;;;;;;;1999.90;999.90;;;;;;;27.16;48.91;94877.34;5031999;28;20021;-68
2022/06/22 05:49:57;;;;;;;1999.90;999.90;;;;;;;27.49;48.18;94886.50;5031732;28;20021;-70
2022/06/22 05:52:39;;;;;;;1999.90;999.90;;;;;;;27.76;47.47;94886.38;5031756;28;20108;-69
2022/06/22 05:55:32;;;;;;;1999.90;999.90;;;;;;;27.91;46.90;94863.03;5031434;28;20075;-69
2022/06/22 05:58:09;;;;;;;1999.90;999.90;;;;;;;27.80;46.21;94824.22;5031492;28;20083;-69
2022/06/22 06:00:44;;;;;;;1999.90;999.90;;;;;;;28.46;45.61;94888.84;5030303;28;20041;-69
2022/06/22 06:03:30;;;;;;;1999.90;999.90;;;;;;;28.71;45.00;94896.47;5031499;28;20439;-69
2022/06/22 06:06:19;;;;;;;1999.90;999.90;;;;;;;29.07;45.08;94894.84;5031396;28;20030;-70
2022/06/22 06:08:58;;;;;;;1999.90;999.90;;;;;;;29.28;44.23;94894.31;5031279;28;20094;-69
2022/06/22 06:11:29;;;;;;;1999.90;999.90;;;;;;;29.29;43.30;94892.34;5030997;28;20416;-69
2022/06/22 06:14:02;;;;;;;1999.90;999.90;;;;;;;29.33;42.69;94860.91;5031446;28;20623;-69
2022/06/22 06:16:40;;;;;;;1999.90;999.90;;;;;;;29.66;41.57;94867.06;5031230;28;20708;-69
2022/06/22 06:19:07;;;;;;;1999.90;999.90;;;;;;;29.92;40.91;94883.59;5031034;28;20577;-70
2022/06/22 06:21:36;;;;;;;1999.90;999.90;;;;;;;30.43;40.57;94914.63;5030714;28;20026;-70
2022/06/22 06:24:10;;;;;;;1999.90;999.90;;;;;;;29.39;40.28;94916.72;5031025;28;20033;-70
2022/06/22 06:30:02;;;;;;;1999.90;999.90;;;;;;;29.07;40.86;94941.38;5030843;28;20036;-70
2022/06/22 06:32:53;;;;;;;1999.90;999.90;;;;;;;27.96;43.86;94910.97;5030727;28;20389;-70
2022/06/22 06:35:28;;;;;;;;;;;;;;;27.53;44.87;94950.00;5030804;28;20401;-69
2022/06/22 06:38:08;;;;;;;1999.90;999.90;;;;;;;26.86;46.72;94962.81;5030564;28;19920;-69
2022/06/22 06:40:49;;;;;;;1999.90;999.90;;;;;;;26.86;47.16;94952.66;5030411;28;20052;-69
2022/06/22 06:43:43;;;;;;;1999.90;999.90;;;;;;;26.46;48.54;94951.69;5031192;28;20104;-69
2022/06/22 06:46:20;;;;;;;1999.90;999.90;;;;;;;26.86;47.05;94884.44;5029110;28;20048;-68
2022/06/22 06:48:53;;;;;;;1999.90;999.90;;;;;;;27.65;46.06;94937.72;5030658;28;20026;-69
2022/06/22 06:51:22;;;;;;;1999.90;999.90;;;;;;;27.17;46.12;94889.78;5030161;28;20104;-69
2022/06/22 06:53:59;;;;;;;1999.90;999.90;;;;;;;26.86;46.32;94831.81;5029979;28;20024;-69
2022/06/22 06:56:58;;;;;;;1999.90;999.90;;;;;;;27.02;46.30;94818.25;5030000;28;20057;-69
2022/06/22 06:59:30;;;;;;;1999.90;999.90;;;;;;;27.10;46.92;94811.53;5026797;28;20052;-69
2022/06/22 07:02:05;;;;;;;1999.90;999.90;;;;;;;27.70;46.01;94879.84;5029912;28;20025;-69
2022/06/22 07:04:34;;;;;;;1999.90;999.90;;;;;;;27.58;46.77;94842.22;5029971;28;20018;-68
2022/06/22 07:07:13;;;;;;;1999.90;999.90;;;;;;;27.52;45.82;94805.66;5030154;28;20018;-69
2022/06/22 07:09:40;;;;;;;1999.90;999.90;;;;;;;27.68;44.82;94801.00;5030135;28;20025;-69
2022/06/22 07:12:30;;;;;;;1999.90;999.90;;;;;;;28.74;44.42;94942.13;5029939;28;20052;-69
2022/06/22 07:14:59;;;;;;;1999.90;999.90;;;;;;;28.17;44.07;94847.63;5029989;28;20017;-68
2022/06/22 07:17:25;;;;;;;1999.90;999.90;;;;;;;28.14;43.65;94820.34;5030314;28;20104;-69
2022/06/22 07:19:56;;;;;;;1999.90;999.90;;;;;;;28.91;43.29;94937.41;5029869;28;20164;-69
2022/06/22 07:22:30;;;;;;;1999.90;999.90;;;;;;;28.77;43.41;94910.41;5029924;28;20048;-69
2022/06/22 07:25:06;;;;;;;1999.90;999.90;;;;;;;29.30;43.21;94954.13;5029982;28;20017;-69
2022/06/22 07:27:47;;;;;;;1999.90;999.90;;;;;;;29.23;42.77;94938.66;5030008;28;20231;-68
2022/06/22 07:30:21;;;;;;;1999.90;999.90;;;;;;;29.59;42.45;94976.16;5029698;28;20032;-70
2022/06/22 07:32:53;;;;;;;1999.90;999.90;;;;;;;29.07;42.55;94936.69;5029941;28;20025;-69
2022/06/22 07:35:30;;;;;;;1999.90;999.90;;;;;;;27.40;46.63;94985.38;5033418;22;20046;-70
2022/06/22 07:38:07;;;;;;;1999.90;999.90;;;;;;;27.29;46.83;94957.47;5008839;28;20549;-70
2022/06/22 07:40:35;;;;;;;1999.90;999.90;;;;;;;28.36;45.07;94957.47;5008243;28;20112;-70
2022/06/22 07:43:00;;;;;;;1999.90;999.90;;;;;;;28.43;44.24;94917.03;5009917;28;20110;-70
2022/06/22 07:45:28;;;;;;;1999.90;999.90;;;;;;;28.98;44.04;94974.88;5009974;28;20110;-70
2022/06/22 07:48:06;;;;;;;1999.90;999.90;;;;;;;29.28;43.64;94962.81;5010062;28;20037;-70
2022/06/22 07:50:52;;;;;;;1999.90;999.90;;;;;;;28.58;44.14;94979.66;5009388;28;20034;-70
2022/06/22 07:53:22;;;;;;;1999.90;999.90;;;;;;;27.73;45.99;94980.91;5009994;28;20029;-70
2022/06/22 07:55:59;;;;;;;1999.90;999.90;;;;;;;28.43;44.10;94925.25;5009780;28;20034;-70
2022/06/22 07:58:34;;;;;;;1999.90;999.90;;;;;;;29.12;43.10;94958.06;5010015;28;20026;-69
2022/06/22 08:01:07;;;;;;;1999.90;999.90;;;;;;;29.23;42.50;94983.25;5009647;28;20037;-70
2022/06/22 08:03:42;;;;;;;1999.90;999.90;;;;;;;29.21;41.63;94941.03;5009767;28;20026;-70
2022/06/22 08:06:14;;;;;;;1999.90;999.90;;;;;;;28.39;43.66;94937.44;5009916;28;20030;-69
2022/06/22 08:09:06;;;;;;;1999.90;999.90;;;;;;;27.35;46.38;94968.69;5008196;28;20032;-70
2022/06/22 08:12:00;;;;;;;1999.90;999.90;;;;;;;27.26;47.13;94973.91;5009286;28;20037;-70
2022/06/22 08:14:33;;;;;;;1999.90;999.90;;;;;;;27.06;48.32;94982.00;5003929;28;20494;-69
2022/06/22 08:17:01;;;;;;;1999.90;999.90;;;;;;;26.99;47.64;94960.28;5009644;28;20034;-70
2022/06/22 08:19:29;;;;;;;1999.90;999.90;;;;;;;27.24;46.25;94932.59;5009640;28;20145;-69
2022/06/22 08:22:01;;;;;;;1999.90;999.90;;;;;;;27.36;46.14;94930.03;5009639;28;20109;-70
2022/06/22 08:24:30;;;;;;;1999.90;999.90;;;;;;;28.29;44.81;94984.91;5013508;28;20037;-70
2022/06/22 08:26:57;;;;;;;1999.90;999.90;;;;;;;27.15;46.14;94977.59;5013428;28;20021;-70
2022/06/22 08:29:23;;;;;;;1999.90;999.90;;;;;;;27.38;45.56;94965.13;5013520;28;20097;-69
2022/06/22 08:31:58;;;;;;;1999.90;999.90;;;;;;;26.43;48.07;94980.56;5013197;28;20069;-69
2022/06/22 08:34:33;;;;;;;1999.90;999.90;;;;;;;26.42;47.22;94951.75;5013062;28;20419;-69
2022/06/22 08:37:07;;;;;;;1999.90;999.90;;;;;;;27.49;45.73;94993.03;5011658;28;20025;-69
2022/06/22 08:39:44;;;;;;;1999.90;999.90;;;;;;;27.82;45.45;94998.72;5013303;28;20029;-69
2022/06/22 08:42:30;;;;;;;1999.90;999.90;;;;;;;27.70;45.77;95002.81;5011768;28;20026;-69
2022/06/22 08:45:22;;;;;;;1999.90;999.90;;;;;;;27.36;46.34;95003.00;5011864;28;20049;-69
2022/06/22 08:48:14;;;;;;;1999.90;999.90;;;;;;;27.51;46.68;95017.19;5013295;28;20037;-69
2022/06/22 08:50:55;;;;;;;1999.90;999.90;;;;;;;26.33;49.46;95016.13;5012597;28;20030;-69
2022/06/22 08:53:47;;;;;;;1999.90;999.90;;;;;;;26.52;48.72;95017.50;5013013;28;20034;-69
2022/06/22 08:56:45;;;;;;;1999.90;999.90;;;;;;;27.58;47.88;94997.94;5011876;28;20079;-69
2022/06/22 08:59:19;;;;;;;1999.90;999.90;;;;;;;27.46;47.41;94993.84;5012952;28;20026;-71
2022/06/22 09:01:57;;;;;;;1999.90;999.90;;;;;;;27.19;47.78;95021.22;5011618;28;20355;-70
2022/06/22 09:04:29;;;;;;;1999.90;999.90;;;;;;;27.53;47.25;95018.31;5011087;28;20030;-70
2022/06/22 09:07:02;;;;;;;1999.90;999.90;;;;;;;27.57;47.35;95023.72;5012656;28;20379;-70
2022/06/22 09:09:55;;;;;;;1999.90;999.90;;;;;;;27.38;47.46;95015.06;5012709;28;20026;-70
2022/06/22 09:12:57;;;;;;;1999.90;999.90;;;;;;;28.81;45.06;95006.88;5012621;28;20084;-70
2022/06/22 09:15:46;;;;;;;1999.90;999.90;;;;;;;29.41;42.78;95014.91;5012511;28;20030;-69
2022/06/22 09:18:21;;;;;;;1999.90;999.90;;;;;;;27.55;46.33;95028.84;4982993;28;20038;-68
2022/06/22 09:20:55;;;;;;;1999.90;999.90;;;;;;;27.37;47.70;95024.44;5010766;28;20038;-69
2022/06/22 09:23:40;;;;;;;1999.90;999.90;;;;;;;27.47;47.18;95018.03;5012559;28;20517;-69
2022/06/22 09:26:34;;;;;;;1999.90;999.90;;;;;;;28.11;45.70;94955.97;5012525;28;20041;-69
2022/06/22 09:29:14;;;;;;;1999.90;999.90;;;;;;;29.28;42.76;94954.56;5012298;28;20483;-69
2022/06/22 09:31:58;;;;;;;1999.90;999.90;;;;;;;29.59;41.79;94998.84;5011997;28;20061;-69
2022/06/22 09:34:38;;;;;;;1999.90;999.90;;;;;;;28.53;43.87;94958.25;5010902;28;20037;-69
2022/06/22 09:37:17;;;;;;;1999.90;999.90;;;;;;;28.05;45.93;94990.47;5012274;28;20041;-69
2022/06/22 09:40:10;;;;;;;1999.90;999.90;;;;;;;28.60;45.13;94996.41;5012055;28;20029;-69
2022/06/22 09:42:54;;;;;;;1999.90;999.90;;;;;;;28.16;45.59;94996.50;5010872;28;20080;-69
2022/06/22 09:45:54;;;;;;;1999.90;999.90;;;;;;;28.38;45.38;94994.13;5012104;28;20022;-69
2022/06/22 09:48:46;;;;;;;1999.90;999.90;;;;;;;27.93;46.93;95000.06;5011913;28;20194;-68
2022/06/22 09:51:20;;;;;;;1999.90;999.90;;;;;;;28.81;45.17;94984.97;5011516;28;20050;-68
2022/06/22 09:57:30;;;;;;;1999.90;999.90;;;;;;;29.72;43.47;94987.94;5011817;28;20042;-68
2022/06/22 10:00:04;;;;;;;1999.90;999.90;;;;;;;29.91;42.88;94981.53;5011326;28;20026;-69
2022/06/22 10:03:16;;;;;;;1999.90;999.90;;;;;;;30.36;42.62;94983.47;5011489;28;20022;-69
2022/06/22 10:06:14;;;;;;;1999.90;999.90;;;;;;;30.35;40.90;94948.22;5011465;28;20406;-70
2022/06/22 10:08:58;;;;;;;1999.90;999.90;;;;;;;29.93;41.67;94934.47;4983024;28;20502;-69
2022/06/22 10:11:41;;;;;;;1999.90;999.90;;;;;;;30.32;41.31;94982.03;5011199;28;20080;-69
2022/06/22 10:14:59;;;;;;;1999.90;999.90;;;;;;;30.83;40.78;94954.66;5011516;28;20026;-69
2022/06/22 10:17:51;;;;;;;1999.90;999.90;;;;;;;28.88;44.80;94982.09;5011551;28;20099;-69
2022/06/22 10:20:40;;;;;;;1999.90;999.90;;;;;;;27.78;46.39;94965.97;5011277;28;20109;-69
2022/06/22 10:23:50;;;;;;;1999.90;999.90;;;;;;;27.79;46.35;94955.81;5011476;28;20408;-70
2022/06/22 10:26:44;;;;;;;1999.90;999.90;;;;;;;28.23;46.61;94999.09;5011323;28;20018;-69
2022/06/22 10:29:33;;;;;;;1999.90;999.90;;;;;;;27.20;49.13;94988.03;5010684;28;20034;-69
2022/06/22 10:31:58;;;;;;;1999.90;999.90;;;;;;;26.87;49.28;95011.53;5010521;28;20387;-71
2022/06/22 10:34:38;;;;;;;1999.90;999.90;;;;;;;27.74;47.42;95000.81;5010740;28;20041;-69
2022/06/22 10:37:34;;;;;;;1999.90;999.90;;;;;;;27.74;46.61;95019.94;5011088;28;20037;-68
2022/06/22 10:45:08;;;;;;;1999.90;999.90;;;;;;;27.67;47.67;95022.78;5010359;28;20037;-68
2022/06/22 10:46:14;;;;;;;1999.90;999.90;;;;;;;27.75;47.67;95007.06;5010170;28;20101;-68
2022/06/22 10:49:15;;;;;;;1999.90;999.90;;;;;;;26.64;50.53;95014.97;5010745;28;20097;-68
2022/06/22 10:51:55;;;;;;;1999.90;999.90;;;;;;;27.38;48.47;95014.28;5010179;28;20106;-68
2022/06/22 10:54:33;;;;;;;1999.90;999.90;;;;;;;27.20;49.60;95014.56;5010323;28;20558;-68
2022/06/22 10:57:23;;;;;;;1999.90;999.90;;;;;;;25.97;52.11;95011.09;5010326;28;20025;-68
2022/06/22 11:00:10;;;;;;;1999.90;999.90;;;;;;;26.62;50.77;95013.84;5010508;28;20088;-68
2022/06/22 11:03:01;;;;;;;1999.90;999.90;;;;;;;27.65;48.74;95001.34;5009149;28;20026;-68
2022/06/22 11:05:38;;;;;;;1999.90;999.90;;;;;;;27.90;47.35;95009.13;5009215;28;20030;-68
2022/06/22 11:08:10;;;;;;;1999.90;999.90;;;;;;;26.27;51.56;94985.03;5009527;28;20034;-69
2022/06/22 11:11:01;;;;;;;1999.90;999.90;;;;;;;26.97;50.63;95018.00;5010153;28;20025;-68
2022/06/22 11:13:29;;;;;;;1999.90;999.90;;;;;;;26.12;52.50;95020.66;5009134;28;20108;-69
2022/06/22 11:16:39;;;;;;;1999.90;999.90;;;;;;;26.54;51.97;95026.03;5010403;28;20494;-69
2022/06/22 11:19:29;;;;;;;1999.90;999.90;;;;;;;25.17;55.69;95030.47;5010309;28;20034;-69
2022/06/22 11:22:15;;;;;;;1999.90;999.90;;;;;;;25.20;55.60;95030.44;5008335;28;20033;-69
2022/06/22 11:25:15;;;;;;;1999.90;999.90;;;;;;;26.15;53.53;95027.22;5008761;28;20021;-68
2022/06/22 11:30:53;;;;;;;1999.90;999.90;;;;;;;25.43;55.40;95027.13;5010333;28;20061;-68
2022/06/22 11:33:37;;;;;;;1999.90;999.90;;;;;;;25.44;55.43;95030.63;5008984;28;20026;-68
2022/06/22 11:36:40;;;;;;;1999.90;999.90;;;;;;;25.82;54.15;95035.00;5010040;28;20034;-69
2022/06/22 11:39:27;;;;;;;1999.90;999.90;;;;;;;26.49;53.13;95005.44;5009244;28;20405;-68
2022/06/22 11:42:19;;;;;;;1999.90;999.90;;;;;;;27.17;51.09;95035.28;5009733;28;20026;-69
2022/06/22 11:47:57;;;;;;;1999.90;999.90;;;;;;;27.42;50.52;95032.16;5010251;28;20524;-69
2022/06/22 11:50:50;;;;;;;1999.90;999.90;;;;;;;27.95;48.64;95040.66;5009339;28;20055;-69
2022/06/22 11:53:49;;;;;;;1999.90;999.90;;;;;;;26.74;51.62;95029.66;5009583;28;20029;-69
2022/06/22 11:56:30;;;;;;;1999.90;999.90;;;;;;;26.04;50.63;95040.97;5009490;28;20474;-69
2022/06/22 11:59:12;;;;;;;1999.90;999.90;;;;;;;25.99;51.70;95046.09;5009516;28;20489;-69
2022/06/22 12:02:15;;;;;;;1999.90;999.90;;;;;;;26.05;51.96;95047.19;5008235;28;20030;-69
2022/06/22 12:05:07;;;;;;;1999.90;999.90;;;;;;;25.90;52.30;95041.91;5009415;28;20026;-69